Wilbur Observed Data For Previous 48 Hours

Caption
Day and Hour Reservoir Elevation (behind dam)* Tailwater Elevation (below dam)* Average Hourly Discharge*
2/19/2017 2 AM EST 1,647.78 1,582.74 157
2/19/2017 3 AM EST 1,647.86 1,582.74 160
2/19/2017 4 AM EST 1,647.94 1,582.74 160
2/19/2017 5 AM EST 1,648.01 1,582.74 160
2/19/2017 6 AM EST 1,648.08 1,582.75 160
2/19/2017 7 AM EST 1,648.15 1,582.75 160
2/19/2017 8 AM EST 1,648.22 1,582.75 160
2/19/2017 9 AM EST 1,648.19 1,583.96 160
2/19/2017 10 AM EST 1,646.31 1,585.57 1,633
2/19/2017 11 AM EST 1,646.37 1,582.69 198
2/19/2017 12 PM EST 1,646.46 1,582.68 150
2/19/2017 1 PM EST 1,646.55 1,582.68 150
2/19/2017 2 PM EST 1,646.64 1,582.68 150
2/19/2017 3 PM EST 1,646.73 1,582.68 150
2/19/2017 4 PM EST 1,646.82 1,582.68 150
2/19/2017 5 PM EST 1,646.91 1,582.70 150
2/19/2017 6 PM EST 1,646.99 1,582.70 155
2/19/2017 7 PM EST 1,647.08 1,582.71 155
2/19/2017 8 PM EST 1,647.16 1,582.73 155
2/19/2017 9 PM EST 1,647.25 1,582.73 155
2/19/2017 10 PM EST 1,647.33 1,582.72 155
2/19/2017 11 PM EST 1,647.41 1,582.75 155
2/20/2017 12 AM EST 1,647.50 1,582.76 155
2/20/2017 1 AM EST 1,647.58 1,582.77 155
2/20/2017 2 AM EST 1,647.66 1,582.79 155
2/20/2017 3 AM EST 1,647.74 1,582.80 155
2/20/2017 4 AM EST 1,647.82 1,582.80 160
2/20/2017 5 AM EST 1,647.89 1,582.80 160
2/20/2017 6 AM EST 1,647.97 1,582.81 160
2/20/2017 7 AM EST 1,648.05 1,582.81 160
2/20/2017 8 AM EST 1,648.12 1,582.82 160
2/20/2017 9 AM EST 1,648.19 1,582.81 160
2/20/2017 10 AM EST 1,648.26 1,582.72 160
2/20/2017 11 AM EST 1,648.33 1,582.71 160
2/20/2017 12 PM EST 1,648.40 1,582.71 160
2/20/2017 1 PM EST 1,648.47 1,582.72 160
2/20/2017 2 PM EST 1,648.54 1,582.72 160
2/20/2017 3 PM EST 1,648.61 1,582.73 160
2/20/2017 4 PM EST 1,648.69 1,582.73 165
2/20/2017 5 PM EST 1,648.76 1,582.73 165
2/20/2017 6 PM EST 1,648.83 1,582.74 165
2/20/2017 7 PM EST 1,648.80 1,583.94 165
2/20/2017 8 PM EST 1,646.98 1,585.58 1,635
2/20/2017 9 PM EST 1,647.04 1,582.72 202
2/20/2017 10 PM EST 1,647.11 1,582.70 155
2/20/2017 11 PM EST 1,647.19 1,582.70 155
2/21/2017 12 AM EST 1,647.29 1,582.69 155
2/21/2017 1 AM EST 1,647.37 1,582.70 155
2/21/2017 2 AM EST 1,647.45 1,582.70 155
2/21/2017 3 AM EST 1,647.54 1,582.70 155
2/21/2017 4 AM EST 1,647.50 1,583.99 155
2/21/2017 5 AM EST 1,645.58 1,585.54 1,627
2/21/2017 6 AM EST 1,645.63 1,582.64 199
2/21/2017 7 AM EST 1,645.76 1,582.62 145
2/21/2017 8 AM EST 1,645.86 1,582.62 145
2/21/2017 9 AM EST 1,645.97 1,582.62 145
2/21/2017 10 AM EST 1,646.08 1,582.62 145
2/21/2017 11 AM EST 1,646.19 1,582.62 149

Elevations are in feet above sea level. Discharges are in cubic feet per second and are reported at the end of the hour.